Time;durP1;ratioP1;P1;durP2;ratioP2;P2;SDS_P1;SDS_P2;PMS_P1;PMS_P2;Temp;Humidity;BMP_temperature;BMP_pressure;BME280_temperature;BME280_humidity;BME280_pressure;Samples;Min_cycle;Max_cycle;Signal;HPM_P1;HPM_P2
2022/10/16 00:01:38;;;;;;;;;;;27.60;96.50;;;;;;5014028;28;19921;-46
2022/10/16 00:04:04;;;;;;;;;;;27.70;96.50;;;;;;5002879;28;19910;-42
2022/10/16 00:06:31;;;;;;;;;;;27.60;96.60;;;;;;5006267;28;19977;-41
2022/10/16 00:08:57;;;;;;;;;;;27.60;96.50;;;;;;5002574;28;19951;-46
2022/10/16 00:11:24;;;;;;;;;;;27.60;96.40;;;;;;5013528;28;20113;-41
2022/10/16 00:13:52;;;;;;;;;;;27.60;96.40;;;;;;5009680;28;19976;-41
2022/10/16 00:16:18;;;;;;;;;;;27.60;96.40;;;;;;5018386;28;19920;-41
2022/10/16 00:18:44;;;;;;;;;;;27.60;96.40;;;;;;5020165;28;19924;-44
2022/10/16 00:21:12;;;;;;;;;;;27.60;96.40;;;;;;5012755;28;20105;-42
2022/10/16 00:23:40;;;;;;;;;;;27.70;96.40;;;;;;5021177;28;20124;-42
2022/10/16 00:29:10;;;;;;;;;;;27.60;96.40;;;;;;5021843;28;19976;-48
2022/10/16 00:31:37;;;;;;;;;;;27.60;96.40;;;;;;5012357;28;19958;-43
2022/10/16 00:34:03;;;;;;;;;;;27.60;96.40;;;;;;5020388;28;19910;-41
2022/10/16 00:36:30;;;;;;;;;;;27.60;96.40;;;;;;5021942;28;19921;-41
2022/10/16 00:38:59;;;;;;;;;;;27.60;96.40;;;;;;5021569;28;19933;-41
2022/10/16 00:41:25;;;;;;;;;;;27.60;96.40;;;;;;5021810;28;19917;-41
2022/10/16 00:43:54;;;;;;;;;;;27.60;96.40;;;;;;5021914;28;20212;-43
2022/10/16 00:46:30;;;;;;;;;;;27.60;96.40;;;;;;5021788;28;19920;-44
2022/10/16 00:49:00;;;;;;;;;;;27.60;96.60;;;;;;5021631;28;19910;-44
2022/10/16 00:51:30;;;;;;;;;;;27.60;96.30;;;;;;5021785;28;19914;-41
2022/10/16 00:53:56;;;;;;;;;;;27.60;96.30;;;;;;5021551;28;19910;-46
2022/10/16 00:56:36;;;;;;;;;;;27.50;96.20;;;;;;5021879;28;19936;-45
2022/10/16 00:59:05;;;;;;;;;;;27.50;96.20;;;;;;5036403;28;19910;-46
2022/10/16 01:01:52;;;;;;;;;;;27.50;96.30;;;;;;5015159;28;19943;-40
2022/10/16 01:04:20;;;;;;;;;;;27.50;96.30;;;;;;5008939;28;19916;-42
2022/10/16 01:06:46;;;;;;;;;;;27.50;96.40;;;;;;5012861;28;19981;-47
2022/10/16 01:09:25;;;;;;;;;;;27.40;96.30;;;;;;5006351;28;20085;-43
2022/10/16 01:11:55;;;;;;;;;;;27.40;96.30;;;;;;5025245;28;19910;-42
2022/10/16 01:14:32;;;;;;;;;;;27.40;96.30;;;;;;5006430;28;19937;-42
2022/10/16 01:17:21;;;;;;;;;;;27.40;96.30;;;;;;5012788;28;19933;-39
2022/10/16 01:19:51;;;;;;;;;;;27.40;96.30;;;;;;5017558;28;19917;-41
2022/10/16 01:22:18;;;;;;;;;;;27.30;96.30;;;;;;5007219;28;19910;-40
2022/10/16 01:24:49;;;;;;;;;;;27.30;96.20;;;;;;5000367;28;19914;-49
2022/10/16 01:27:25;;;;;;;;;;;27.30;96.20;;;;;;5000259;28;19941;-41
2022/10/16 01:29:57;;;;;;;;;;;27.30;96.30;;;;;;5000783;28;19914;-43
2022/10/16 01:32:35;;;;;;;;;;;27.30;96.20;;;;;;4999141;28;19917;-51
2022/10/16 01:35:07;;;;;;;;;;;27.30;96.10;;;;;;5000487;28;19920;-44
2022/10/16 01:37:37;;;;;;;;;;;27.30;96.10;;;;;;5001598;28;20247;-44
2022/10/16 01:40:05;;;;;;;;;;;27.30;96.30;;;;;;5003385;28;20247;-42
2022/10/16 01:42:35;;;;;;;;;;;27.30;96.00;;;;;;5003300;28;19917;-45
2022/10/16 01:45:07;;;;;;;;;;;27.30;96.00;;;;;;5002658;28;20244;-46
2022/10/16 01:47:35;;;;;;;;;;;27.30;96.00;;;;;;5003688;28;19932;-44
2022/10/16 01:50:04;;;;;;;;;;;27.30;96.10;;;;;;5004851;28;19914;-42
2022/10/16 01:52:32;;;;;;;;;;;27.30;96.10;;;;;;5004380;28;20194;-42
2022/10/16 01:55:00;;;;;;;;;;;27.30;96.00;;;;;;5004635;28;19967;-43
2022/10/16 01:57:28;;;;;;;;;;;27.20;96.00;;;;;;5004515;28;19943;-45
2022/10/16 01:59:56;;;;;;;;;;;27.20;95.90;;;;;;5004170;28;19993;-41
2022/10/16 02:02:22;;;;;;;;;;;27.30;95.90;;;;;;5004425;28;19921;-45
2022/10/16 02:04:55;;;;;;;;;;;27.30;95.80;;;;;;5004469;28;19921;-41
2022/10/16 02:07:22;;;;;;;;;;;27.20;95.60;;;;;;5004224;28;19910;-41
2022/10/16 02:09:48;;;;;;;;;;;27.20;95.50;;;;;;5003195;28;19922;-44
2022/10/16 02:12:24;;;;;;;;;;;27.20;95.50;;;;;;5004246;28;19910;-47
2022/10/16 02:14:50;;;;;;;;;;;27.20;95.30;;;;;;5004178;28;19936;-43
2022/10/16 02:17:25;;;;;;;;;;;27.20;95.20;;;;;;5004179;28;19917;-43
2022/10/16 02:19:52;;;;;;;;;;;27.20;95.10;;;;;;5004166;28;20195;-42
2022/10/16 02:22:23;;;;;;;;;;;27.10;95.10;;;;;;5004170;28;20170;-48
2022/10/16 02:25:25;;;;;;;;;;;27.10;94.90;;;;;;5004193;28;19914;-46
2022/10/16 02:28:00;;;;;;;;;;;27.10;94.80;;;;;;4982902;28;19965;-40
2022/10/16 02:30:26;;;;;;;;;;;27.10;94.80;;;;;;5001069;28;20101;-42
2022/10/16 02:32:54;;;;;;;;;;;27.00;94.70;;;;;;5004072;28;19918;-40
2022/10/16 02:35:21;;;;;;;;;;;27.10;94.70;;;;;;5004136;28;19936;-42
2022/10/16 02:37:52;;;;;;;;;;;27.10;94.70;;;;;;5003842;28;19909;-46
2022/10/16 02:40:22;;;;;;;;;;;27.00;94.60;;;;;;5004056;28;19917;-51
2022/10/16 02:42:51;;;;;;;;;;;27.00;94.60;;;;;;5003847;28;19945;-42
2022/10/16 02:45:18;;;;;;;;;;;27.00;94.50;;;;;;5003980;28;20283;-42
2022/10/16 02:47:44;;;;;;;;;;;26.90;94.50;;;;;;5003772;28;19906;-43
2022/10/16 02:50:10;;;;;;;;;;;26.90;94.40;;;;;;5003991;28;20197;-42
2022/10/16 02:52:36;;;;;;;;;;;26.90;94.30;;;;;;5003483;28;19917;-45
2022/10/16 02:55:02;;;;;;;;;;;26.90;94.10;;;;;;5003847;28;19921;-42
2022/10/16 02:57:29;;;;;;;;;;;26.90;94.10;;;;;;5003622;28;19910;-45
2022/10/16 02:59:57;;;;;;;;;;;26.90;94.10;;;;;;5003257;28;20276;-44
2022/10/16 03:02:30;;;;;;;;;;;26.90;94.10;;;;;;5003450;28;19992;-43
2022/10/16 03:04:56;;;;;;;;;;;26.90;94.00;;;;;;5003623;28;19913;-43
2022/10/16 03:07:22;;;;;;;;;;;26.90;94.00;;;;;;5003595;28;19984;-46
2022/10/16 03:09:48;;;;;;;;;;;26.80;94.10;;;;;;5003561;28;19914;-43
2022/10/16 03:12:14;;;;;;;;;;;26.80;94.10;;;;;;5003412;28;19964;-46
2022/10/16 03:14:40;;;;;;;;;;;26.80;94.20;;;;;;5003186;28;20243;-42
2022/10/16 03:17:06;;;;;;;;;;;26.80;94.20;;;;;;5003448;28;19914;-42
2022/10/16 03:19:33;;;;;;;;;;;26.80;94.30;;;;;;5003202;28;20097;-42
2022/10/16 03:21:59;;;;;;;;;;;26.80;94.30;;;;;;5003106;28;19916;-45
2022/10/16 03:24:25;;;;;;;;;;;26.80;94.30;;;;;;5003220;28;20160;-43
2022/10/16 03:26:51;;;;;;;;;;;26.80;94.30;;;;;;5003272;28;20003;-43
2022/10/16 03:29:17;;;;;;;;;;;26.80;94.30;;;;;;5002951;28;19951;-42
2022/10/16 03:31:45;;;;;;;;;;;26.80;94.40;;;;;;5003217;28;19910;-42
2022/10/16 03:34:11;;;;;;;;;;;26.70;94.30;;;;;;5003017;28;19955;-44
2022/10/16 03:36:37;;;;;;;;;;;26.70;94.30;;;;;;5003107;28;19910;-43
2022/10/16 03:39:03;;;;;;;;;;;26.70;94.40;;;;;;5002860;28;20146;-46
2022/10/16 03:41:29;;;;;;;;;;;26.70;94.30;;;;;;5003210;28;20217;-44
2022/10/16 03:43:55;;;;;;;;;;;26.70;94.30;;;;;;5002767;28;19910;-42
2022/10/16 03:46:22;;;;;;;;;;;26.70;94.30;;;;;;5003045;28;20089;-44
2022/10/16 03:48:48;;;;;;;;;;;26.70;94.30;;;;;;5002914;28;20243;-42
2022/10/16 03:51:14;;;;;;;;;;;26.70;94.30;;;;;;5002708;28;19914;-44
2022/10/16 03:53:40;;;;;;;;;;;26.60;94.30;;;;;;5002627;28;19910;-49
2022/10/16 03:56:06;;;;;;;;;;;26.60;94.20;;;;;;5003086;28;19921;-47
2022/10/16 03:58:32;;;;;;;;;;;26.60;94.30;;;;;;5002689;28;19985;-51
2022/10/16 04:00:58;;;;;;;;;;;26.60;94.20;;;;;;5001795;28;19922;-42
2022/10/16 04:03:24;;;;;;;;;;;26.60;94.30;;;;;;5002649;28;19909;-42
2022/10/16 04:05:51;;;;;;;;;;;26.60;94.30;;;;;;5002879;28;19914;-41
2022/10/16 04:08:18;;;;;;;;;;;26.60;94.20;;;;;;5002491;28;19906;-41
2022/10/16 04:10:44;;;;;;;;;;;26.60;94.20;;;;;;5002748;28;20117;-42
2022/10/16 04:13:11;;;;;;;;;;;26.60;94.20;;;;;;5002471;28;19910;-41
2022/10/16 04:15:37;;;;;;;;;;;26.60;94.20;;;;;;5002737;28;19947;-42
2022/10/16 04:18:03;;;;;;;;;;;26.60;94.20;;;;;;5002290;28;19909;-40
2022/10/16 04:20:29;;;;;;;;;;;26.50;94.20;;;;;;5002406;28;19918;-44
2022/10/16 04:22:56;;;;;;;;;;;26.50;94.20;;;;;;5002464;28;19959;-40
2022/10/16 04:25:23;;;;;;;;;;;26.50;94.20;;;;;;5002420;28;19920;-41
2022/10/16 04:27:49;;;;;;;;;;;26.50;94.10;;;;;;5002484;28;19910;-40
2022/10/16 04:30:15;;;;;;;;;;;26.50;94.10;;;;;;5002575;28;19989;-40
2022/10/16 04:32:41;;;;;;;;;;;26.50;94.10;;;;;;5002097;28;19917;-39
2022/10/16 04:35:08;;;;;;;;;;;26.50;94.10;;;;;;5002326;28;19975;-39
2022/10/16 04:37:34;;;;;;;;;;;26.50;94.10;;;;;;5002127;28;19906;-39
2022/10/16 04:40:00;;;;;;;;;;;26.50;94.10;;;;;;5002264;28;19985;-40
2022/10/16 04:42:26;;;;;;;;;;;26.50;94.10;;;;;;5002055;28;19914;-38
2022/10/16 04:44:52;;;;;;;;;;;26.50;94.00;;;;;;5002238;28;19960;-42
2022/10/16 04:47:19;;;;;;;;;;;26.40;93.90;;;;;;5002156;28;19910;-43
2022/10/16 04:49:45;;;;;;;;;;;26.40;94.00;;;;;;5002054;28;19997;-42
2022/10/16 04:52:11;;;;;;;;;;;26.50;94.00;;;;;;5001855;28;20189;-41
2022/10/16 04:54:37;;;;;;;;;;;26.40;93.90;;;;;;5001764;28;19914;-47
2022/10/16 04:57:04;;;;;;;;;;;26.40;93.90;;;;;;5002001;28;20008;-39
2022/10/16 04:59:30;;;;;;;;;;;26.40;93.90;;;;;;5001783;28;20110;-41
2022/10/16 05:01:56;;;;;;;;;;;26.40;93.90;;;;;;5001734;28;19925;-42
2022/10/16 05:04:23;;;;;;;;;;;26.40;93.90;;;;;;5001685;28;19910;-39
2022/10/16 05:06:49;;;;;;;;;;;26.40;93.80;;;;;;5001779;28;19910;-43
2022/10/16 05:09:15;;;;;;;;;;;26.40;93.80;;;;;;5001739;28;19917;-40
2022/10/16 05:11:41;;;;;;;;;;;26.40;93.80;;;;;;5002322;28;19910;-39
2022/10/16 05:14:07;;;;;;;;;;;26.30;93.80;;;;;;5005229;28;19906;-41
2022/10/16 05:16:34;;;;;;;;;;;26.30;93.70;;;;;;5005630;28;19956;-39
2022/10/16 05:19:00;;;;;;;;;;;26.30;93.70;;;;;;5004979;28;19910;-40
2022/10/16 05:21:26;;;;;;;;;;;26.30;93.70;;;;;;5005455;28;20035;-38
2022/10/16 05:23:53;;;;;;;;;;;26.30;93.60;;;;;;5005143;28;19910;-41
2022/10/16 05:26:20;;;;;;;;;;;26.30;93.60;;;;;;5005311;28;19910;-44
2022/10/16 05:28:46;;;;;;;;;;;26.30;93.70;;;;;;5004986;28;19921;-39
2022/10/16 05:31:12;;;;;;;;;;;26.30;93.60;;;;;;5005325;28;20148;-41
2022/10/16 05:33:38;;;;;;;;;;;26.30;93.50;;;;;;5004752;28;19909;-41
2022/10/16 05:36:07;;;;;;;;;;;26.30;93.50;;;;;;5005376;28;19914;-43
2022/10/16 05:38:36;;;;;;;;;;;26.30;93.40;;;;;;5005089;28;19933;-40
2022/10/16 05:41:03;;;;;;;;;;;26.30;93.30;;;;;;5004912;28;20247;-40
2022/10/16 05:43:30;;;;;;;;;;;26.20;93.20;;;;;;5004788;28;19910;-40
2022/10/16 05:45:57;;;;;;;;;;;26.20;93.20;;;;;;5005114;28;19921;-38
2022/10/16 05:48:24;;;;;;;;;;;26.20;93.20;;;;;;5004531;28;19942;-47
2022/10/16 05:50:57;;;;;;;;;;;26.20;93.10;;;;;;5004841;28;20089;-38
2022/10/16 05:53:25;;;;;;;;;;;26.20;93.10;;;;;;5004854;28;19917;-40
2022/10/16 05:55:54;;;;;;;;;;;26.20;93.20;;;;;;5004756;28;19914;-43
2022/10/16 05:58:21;;;;;;;;;;;26.20;93.20;;;;;;5004481;28;19972;-42
2022/10/16 06:00:57;;;;;;;;;;;26.20;93.20;;;;;;5004327;28;19921;-41
2022/10/16 06:03:23;;;;;;;;;;;26.20;93.20;;;;;;5004426;28;19917;-39
2022/10/16 06:05:49;;;;;;;;;;;26.20;93.20;;;;;;5004697;28;19917;-41
2022/10/16 06:08:16;;;;;;;;;;;26.20;93.30;;;;;;5004353;28;20105;-47
2022/10/16 06:10:43;;;;;;;;;;;26.20;93.20;;;;;;5004639;28;19922;-40
2022/10/16 06:13:10;;;;;;;;;;;26.20;93.30;;;;;;5004296;28;19981;-47
2022/10/16 06:15:36;;;;;;;;;;;26.20;93.30;;;;;;5004540;28;19914;-43
2022/10/16 06:18:02;;;;;;;;;;;26.10;93.30;;;;;;5004113;28;19960;-39
2022/10/16 06:20:28;;;;;;;;;;;26.10;93.30;;;;;;5004425;28;20097;-41
2022/10/16 06:22:54;;;;;;;;;;;26.10;93.30;;;;;;5003702;28;19916;-41
2022/10/16 06:25:20;;;;;;;;;;;26.20;93.30;;;;;;5004184;28;19913;-40
2022/10/16 06:27:46;;;;;;;;;;;26.10;93.20;;;;;;5004061;28;20189;-41
2022/10/16 06:30:12;;;;;;;;;;;26.10;93.20;;;;;;5004309;28;19914;-40
2022/10/16 06:32:38;;;;;;;;;;;26.10;93.10;;;;;;5003882;28;19984;-40
2022/10/16 06:35:05;;;;;;;;;;;26.10;93.10;;;;;;5004233;28;19949;-44
2022/10/16 06:37:31;;;;;;;;;;;26.10;93.10;;;;;;5004286;28;19943;-43
2022/10/16 06:39:57;;;;;;;;;;;26.10;93.10;;;;;;5003792;28;19945;-40
2022/10/16 06:42:24;;;;;;;;;;;26.10;93.10;;;;;;5003812;28;20097;-43
2022/10/16 06:44:50;;;;;;;;;;;26.10;93.10;;;;;;5003942;28;20252;-41
2022/10/16 06:47:16;;;;;;;;;;;26.10;93.10;;;;;;5003660;28;19914;-43
2022/10/16 06:49:42;;;;;;;;;;;26.10;93.20;;;;;;5003806;28;20139;-46
2022/10/16 06:52:08;;;;;;;;;;;26.10;93.30;;;;;;5003716;28;19910;-47
2022/10/16 06:54:35;;;;;;;;;;;26.20;93.30;;;;;;5003623;28;19913;-43
2022/10/16 06:57:01;;;;;;;;;;;26.10;93.20;;;;;;5003570;28;19973;-39
2022/10/16 06:59:27;;;;;;;;;;;26.10;93.20;;;;;;5003595;28;20075;-41
2022/10/16 07:01:53;;;;;;;;;;;26.10;93.10;;;;;;5003383;28;19918;-39
2022/10/16 07:04:20;;;;;;;;;;;26.10;93.10;;;;;;5003344;28;19905;-42
2022/10/16 07:06:46;;;;;;;;;;;26.10;93.10;;;;;;5003490;28;19955;-46
2022/10/16 07:09:12;;;;;;;;;;;26.10;93.40;;;;;;5003452;28;19906;-44
2022/10/16 07:11:39;;;;;;;;;;;26.10;93.20;;;;;;5003301;28;19914;-44
2022/10/16 07:14:12;;;;;;;;;;;26.10;93.30;;;;;;5003379;28;19916;-48
2022/10/16 07:16:39;;;;;;;;;;;26.10;93.30;;;;;;5003314;28;19914;-39
2022/10/16 07:19:05;;;;;;;;;;;26.10;93.40;;;;;;5003529;28;19917;-42
2022/10/16 07:21:35;;;;;;;;;;;26.10;93.30;;;;;;5003628;28;19913;-44
2022/10/16 07:24:01;;;;;;;;;;;26.10;93.20;;;;;;5003213;28;19973;-41
2022/10/16 07:26:29;;;;;;;;;;;26.10;93.20;;;;;;5003587;28;19914;-47
2022/10/16 07:28:56;;;;;;;;;;;26.10;93.20;;;;;;5003142;28;19968;-55
2022/10/16 07:31:23;;;;;;;;;;;26.10;93.20;;;;;;5003535;28;19921;-55
2022/10/16 07:33:49;;;;;;;;;;;26.10;93.20;;;;;;5002497;28;19941;-53
2022/10/16 07:36:17;;;;;;;;;;;26.10;93.20;;;;;;5003005;28;19916;-58
2022/10/16 07:38:43;;;;;;;;;;;26.10;93.20;;;;;;5002969;28;19913;-58
2022/10/16 07:41:11;;;;;;;;;;;26.00;93.30;;;;;;5003179;28;19917;-58
2022/10/16 07:43:37;;;;;;;;;;;26.00;93.30;;;;;;5002885;28;19910;-57
2022/10/16 07:46:04;;;;;;;;;;;26.00;93.40;;;;;;5003266;28;19917;-57
2022/10/16 07:48:31;;;;;;;;;;;26.00;93.40;;;;;;5002736;28;19910;-55
2022/10/16 07:50:58;;;;;;;;;;;26.10;93.50;;;;;;5003119;28;20178;-54
2022/10/16 07:53:24;;;;;;;;;;;26.00;93.40;;;;;;5002772;28;19966;-56
2022/10/16 07:55:51;;;;;;;;;;;26.00;93.70;;;;;;5002927;28;19914;-56
2022/10/16 07:58:17;;;;;;;;;;;26.00;93.40;;;;;;5002822;28;19910;-57
2022/10/16 08:00:43;;;;;;;;;;;26.00;93.50;;;;;;5002606;28;19921;-58
2022/10/16 08:03:09;;;;;;;;;;;26.00;93.60;;;;;;5002579;28;19916;-47
2022/10/16 08:05:35;;;;;;;;;;;26.00;93.60;;;;;;5002848;28;20204;-51
2022/10/16 08:08:02;;;;;;;;;;;25.90;93.60;;;;;;5002548;28;19910;-49
2022/10/16 08:10:28;;;;;;;;;;;25.90;93.60;;;;;;5002672;28;19914;-50
2022/10/16 08:12:55;;;;;;;;;;;26.00;93.70;;;;;;5002664;28;19906;-52
2022/10/16 08:15:21;;;;;;;;;;;26.00;93.60;;;;;;5002678;28;20070;-50
2022/10/16 08:17:57;;;;;;;;;;;25.90;93.60;;;;;;5002388;28;20186;-48
2022/10/16 08:20:23;;;;;;;;;;;25.90;93.60;;;;;;5002576;28;19959;-54
2022/10/16 08:22:49;;;;;;;;;;;25.90;93.60;;;;;;5002014;28;19942;-41
2022/10/16 08:25:15;;;;;;;;;;;25.90;93.60;;;;;;5011779;28;19920;-40
2022/10/16 08:27:41;;;;;;;;;;;25.90;93.60;;;;;;5017469;28;19910;-46
2022/10/16 08:30:08;;;;;;;;;;;25.90;93.80;;;;;;5007922;28;19988;-40
2022/10/16 08:32:34;;;;;;;;;;;25.90;93.80;;;;;;5002163;28;19942;-42
2022/10/16 08:35:00;;;;;;;;;;;25.90;93.90;;;;;;5002487;28;20181;-39
2022/10/16 08:40:33;;;;;;;;;;;25.90;93.90;;;;;;5002132;28;19924;-41
2022/10/16 08:43:15;;;;;;;;;;;25.90;93.90;;;;;;5000467;28;19992;-37
2022/10/16 08:45:42;;;;;;;;;;;25.90;93.90;;;;;;5000590;28;19921;-39
2022/10/16 08:48:27;;;;;;;;;;;25.90;94.00;;;;;;5000397;28;19942;-43
2022/10/16 08:50:54;;;;;;;;;;;25.90;94.00;;;;;;5000623;28;19913;-44
2022/10/16 08:53:52;;;;;;;;;;;25.90;94.00;;;;;;5000302;28;19910;-40
2022/10/16 08:56:18;;;;;;;;;;;25.90;94.00;;;;;;4988515;28;20303;-45
2022/10/16 08:58:45;;;;;;;;;;;25.90;94.10;;;;;;5000907;28;19917;-41
2022/10/16 09:01:12;;;;;;;;;;;25.90;94.10;;;;;;5001698;28;19929;-50
2022/10/16 09:03:41;;;;;;;;;;;25.90;94.10;;;;;;5001969;28;19910;-45
2022/10/16 09:06:20;;;;;;;;;;;25.90;94.10;;;;;;5002275;28;19914;-45
2022/10/16 09:08:46;;;;;;;;;;;25.90;94.10;;;;;;5001786;28;20185;-48
2022/10/16 09:11:12;;;;;;;;;;;25.90;94.10;;;;;;5002286;28;19937;-45
2022/10/16 09:13:46;;;;;;;;;;;25.80;94.10;;;;;;5001656;28;19910;-44
2022/10/16 09:16:21;;;;;;;;;;;25.80;94.10;;;;;;5002123;28;19921;-44
2022/10/16 09:18:47;;;;;;;;;;;25.80;94.10;;;;;;5001587;28;19917;-47
2022/10/16 09:21:19;;;;;;;;;;;25.80;94.10;;;;;;5002047;28;19967;-44
2022/10/16 09:23:46;;;;;;;;;;;25.80;94.10;;;;;;5001628;28;19921;-42
2022/10/16 09:26:14;;;;;;;;;;;25.80;94.10;;;;;;5001877;28;19921;-43
2022/10/16 09:28:41;;;;;;;;;;;25.80;94.10;;;;;;5001529;28;20193;-45
2022/10/16 09:31:25;;;;;;;;;;;25.70;94.10;;;;;;5001988;28;19948;-39
2022/10/16 09:34:14;;;;;;;;;;;25.80;94.10;;;;;;5001619;28;19924;-43
2022/10/16 09:36:42;;;;;;;;;;;25.70;94.00;;;;;;5001237;28;19913;-41
2022/10/16 09:39:09;;;;;;;;;;;25.80;94.00;;;;;;5001544;28;20099;-40
2022/10/16 09:41:40;;;;;;;;;;;25.70;94.00;;;;;;5001999;28;19925;-47
2022/10/16 09:44:15;;;;;;;;;;;25.70;94.00;;;;;;5001288;28;19906;-40
2022/10/16 09:46:42;;;;;;;;;;;25.70;94.00;;;;;;5001320;28;19986;-47
2022/10/16 09:49:25;;;;;;;;;;;25.70;94.10;;;;;;5001283;28;19909;-44
2022/10/16 09:51:53;;;;;;;;;;;25.70;94.10;;;;;;5001226;28;19914;-41
2022/10/16 09:54:21;;;;;;;;;;;25.70;94.10;;;;;;5001314;28;20212;-42
2022/10/16 09:56:51;;;;;;;;;;;25.70;94.10;;;;;;5001118;28;19937;-43
2022/10/16 09:59:23;;;;;;;;;;;25.70;94.10;;;;;;5004024;28;20166;-45
2022/10/16 10:01:51;;;;;;;;;;;25.70;94.20;;;;;;5004341;28;19988;-45
2022/10/16 10:04:18;;;;;;;;;;;25.70;94.20;;;;;;5022722;28;20197;-43
2022/10/16 10:06:55;;;;;;;;;;;25.70;94.20;;;;;;5024145;28;20086;-41
2022/10/16 10:09:23;;;;;;;;;;;25.70;94.30;;;;;;5023833;28;19910;-40
2022/10/16 10:11:56;;;;;;;;;;;25.70;94.30;;;;;;5023976;28;19916;-41
2022/10/16 10:14:24;;;;;;;;;;;25.70;94.30;;;;;;5023875;28;19952;-40
2022/10/16 10:16:51;;;;;;;;;;;25.70;94.40;;;;;;5023770;28;19931;-45
2022/10/16 10:19:18;;;;;;;;;;;25.60;94.30;;;;;;5023906;28;20262;-41
2022/10/16 10:21:45;;;;;;;;;;;25.60;94.40;;;;;;5023746;28;19980;-44
2022/10/16 10:24:12;;;;;;;;;;;25.60;94.40;;;;;;5023677;28;19906;-42
2022/10/16 10:26:41;;;;;;;;;;;25.60;94.40;;;;;;5023693;28;19920;-40
2022/10/16 10:29:34;;;;;;;;;;;25.60;94.40;;;;;;5023790;28;19943;-43
2022/10/16 10:32:16;;;;;;;;;;;25.60;94.40;;;;;;5008121;28;19917;-40
2022/10/16 10:35:01;;;;;;;;;;;25.60;94.40;;;;;;5023624;28;19910;-41
2022/10/16 10:37:27;;;;;;;;;;;25.60;94.40;;;;;;5023591;28;19913;-41
2022/10/16 10:40:09;;;;;;;;;;;25.60;94.50;;;;;;5023410;28;20201;-38
2022/10/16 10:43:04;;;;;;;;;;;25.60;94.50;;;;;;5023476;28;19993;-38
2022/10/16 10:45:52;;;;;;;;;;;25.60;94.50;;;;;;5014901;28;20194;-42
2022/10/16 10:48:27;;;;;;;;;;;25.60;94.50;;;;;;5023282;28;19949;-42
2022/10/16 10:51:13;;;;;;;;;;;25.60;94.50;;;;;;5023803;28;19936;-40
2022/10/16 10:54:15;;;;;;;;;;;25.60;94.60;;;;;;5002672;28;19913;-39
2022/10/16 10:56:48;;;;;;;;;;;25.60;94.60;;;;;;4982440;28;19949;-41
2022/10/16 10:59:32;;;;;;;;;;;25.60;94.60;;;;;;5016909;28;19941;-38
2022/10/16 11:02:01;;;;;;;;;;;25.50;94.60;;;;;;5022933;28;19918;-40
2022/10/16 11:04:34;;;;;;;;;;;25.50;94.70;;;;;;5023191;28;19917;-38
2022/10/16 11:07:00;;;;;;;;;;;25.60;94.70;;;;;;5023144;28;20132;-38
2022/10/16 11:09:32;;;;;;;;;;;25.50;94.70;;;;;;5023012;28;19909;-40
2022/10/16 11:12:07;;;;;;;;;;;25.50;94.70;;;;;;5023085;28;20160;-45
2022/10/16 11:14:42;;;;;;;;;;;25.60;94.70;;;;;;5022997;28;19922;-46
2022/10/16 11:17:20;;;;;;;;;;;25.50;94.70;;;;;;5023023;28;19951;-41
2022/10/16 11:19:46;;;;;;;;;;;25.50;94.70;;;;;;5022916;28;19913;-39
2022/10/16 11:22:17;;;;;;;;;;;25.50;94.80;;;;;;5022820;28;19981;-38
2022/10/16 11:24:48;;;;;;;;;;;25.60;94.80;;;;;;5023030;28;19973;-40
2022/10/16 11:27:19;;;;;;;;;;;25.60;94.80;;;;;;5022673;28;19909;-41
2022/10/16 11:29:49;;;;;;;;;;;25.60;94.80;;;;;;5022856;28;19948;-39
2022/10/16 11:32:25;;;;;;;;;;;25.60;94.70;;;;;;5022739;28;19948;-42
2022/10/16 11:34:59;;;;;;;;;;;25.60;94.70;;;;;;5022751;28;19916;-39
2022/10/16 11:37:38;;;;;;;;;;;25.60;94.80;;;;;;5022542;28;19988;-40
2022/10/16 11:40:24;;;;;;;;;;;25.70;94.70;;;;;;5022552;28;19918;-38
2022/10/16 11:43:10;;;;;;;;;;;25.70;94.70;;;;;;5022263;28;19909;-38
2022/10/16 11:45:42;;;;;;;;;;;25.70;94.80;;;;;;5022865;28;19972;-42
2022/10/16 11:48:27;;;;;;;;;;;25.60;94.70;;;;;;5022472;28;19910;-39
2022/10/16 11:50:56;;;;;;;;;;;25.70;94.70;;;;;;5022878;28;19968;-41
2022/10/16 11:53:22;;;;;;;;;;;25.70;94.70;;;;;;5022487;28;19910;-40
2022/10/16 11:55:49;;;;;;;;;;;25.70;94.70;;;;;;5022597;28;19945;-41
2022/10/16 11:58:34;;;;;;;;;;;25.70;94.70;;;;;;5022392;28;19910;-43
2022/10/16 12:01:09;;;;;;;;;;;25.80;94.80;;;;;;5022085;28;19921;-42
2022/10/16 12:03:41;;;;;;;;;;;25.90;95.10;;;;;;5022580;28;19910;-40
2022/10/16 23:10:42;;;;;;;;;;;26.90;96.20;;;;;;6138108;23;1693002;-50
2022/10/16 23:13:08;;;;;;;;;;;26.80;96.10;;;;;;6202396;23;19917;-54
2022/10/16 23:15:38;;;;;;;;;;;26.90;96.10;;;;;;6204310;23;19943;-54
2022/10/16 23:18:04;;;;;;;;;;;26.90;96.10;;;;;;6205086;23;19928;-53
2022/10/16 23:20:30;;;;;;;;;;;26.90;96.10;;;;;;6203960;23;19904;-56
2022/10/16 23:22:56;;;;;;;;;;;26.90;96.10;;;;;;6204037;23;19967;-53
2022/10/16 23:25:22;;;;;;;;;;;26.90;96.10;;;;;;6204034;23;19904;-54
2022/10/16 23:27:49;;;;;;;;;;;26.90;96.00;;;;;;6204338;23;19955;-55
2022/10/16 23:30:15;;;;;;;;;;;26.90;96.10;;;;;;6204518;23;20191;-52
2022/10/16 23:32:41;;;;;;;;;;;26.90;96.10;;;;;;6204237;23;19909;-52
2022/10/16 23:35:07;;;;;;;;;;;26.90;96.10;;;;;;6204293;23;19908;-55
2022/10/16 23:37:33;;;;;;;;;;;26.90;96.10;;;;;;6204543;23;19908;-52
2022/10/16 23:39:59;;;;;;;;;;;26.90;96.00;;;;;;6204688;23;20180;-54
2022/10/16 23:42:25;;;;;;;;;;;26.90;96.10;;;;;;6204028;23;19904;-54
2022/10/16 23:44:52;;;;;;;;;;;26.90;96.00;;;;;;6204461;23;19908;-52
2022/10/16 23:47:18;;;;;;;;;;;26.90;96.00;;;;;;6204414;23;19951;-52
2022/10/16 23:49:44;;;;;;;;;;;26.90;96.00;;;;;;6204488;23;19919;-54
2022/10/16 23:52:10;;;;;;;;;;;26.90;96.00;;;;;;6204157;23;19956;-55
2022/10/16 23:54:36;;;;;;;;;;;26.90;96.10;;;;;;6203367;23;20129;-59
2022/10/16 23:57:02;;;;;;;;;;;26.80;96.00;;;;;;6203219;23;19911;-55
2022/10/16 23:59:31;;;;;;;;;;;26.90;96.00;;;;;;6204153;23;19983;-56
